Time;durP1;ratioP1;P1;durP2;ratioP2;P2;SDS_P1;SDS_P2;PMS_P1;PMS_P2;Temp;Humidity;BMP_temperature;BMP_pressure;BME280_temperature;BME280_humidity;BME280_pressure;Samples;Min_cycle;Max_cycle;Signal;HPM_P1;HPM_P2
2022/02/09 00:07:45;;;;;;;0.30;0.30;;;8.50;53.70;;;;;;4936916;29;20071;-89
2022/02/09 00:10:11;;;;;;;0.30;0.30;;;8.50;53.70;;;;;;4943365;28;20042;-88
2022/02/09 00:12:48;;;;;;;0.75;0.40;;;8.50;53.70;;;;;;4929669;29;20143;-87
2022/02/09 00:28:33;;;;;;;1.10;0.40;;;8.40;53.30;;;;;;4902293;29;20039;-86
2022/02/09 00:44:08;;;;;;;0.20;0.20;;;8.40;52.90;;;;;;4947015;28;20036;-87
2022/02/09 01:11:33;;;;;;;0.10;0.10;;;8.30;51.80;;;;;;4875550;29;20037;-89
2022/02/09 01:38:00;;;;;;;0.80;0.43;;;8.20;51.70;;;;;;4882797;29;20041;-88
2022/02/09 01:39:02;;;;;;;0.10;0.10;;;8.20;51.70;;;;;;4866946;29;20040;-87
2022/02/09 01:57:46;;;;;;;0.38;0.10;;;8.20;51.50;;;;;;4946043;29;20043;-87
2022/02/09 02:00:14;;;;;;;0.45;0.25;;;8.20;51.50;;;;;;4947920;28;20086;-85
2022/02/09 02:02:39;;;;;;;0.20;0.20;;;8.20;51.40;;;;;;4913094;29;20035;-89
2022/02/09 02:05:06;;;;;;;0.20;0.10;;;8.20;51.40;;;;;;4924661;29;20046;-89
2022/02/09 02:07:45;;;;;;;0.10;0.10;;;8.10;51.40;;;;;;4922437;29;20093;-89
2022/02/09 02:10:13;;;;;;;0.10;0.10;;;8.10;51.50;;;;;;4923388;29;20032;-90
2022/02/09 02:13:14;;;;;;;1.08;0.10;;;8.10;51.50;;;;;;4922383;29;20123;-92
2022/02/09 02:18:26;;;;;;;0.20;0.20;;;8.10;51.50;;;;;;4924610;29;20055;-93
2022/02/09 02:31:44;;;;;;;0.22;0.22;;;8.10;51.50;;;;;;4953844;28;20581;-91
2022/02/09 02:36:55;;;;;;;0.45;0.43;;;8.10;51.60;;;;;;4925274;28;20032;-87
2022/02/09 02:58:11;;;;;;;1.23;0.60;;;8.10;52.40;;;;;;4927087;29;20048;-89
2022/02/09 03:14:25;;;;;;;1.05;0.80;;;8.00;52.50;;;;;;4897455;29;20039;-90
2022/02/09 03:17:00;;;;;;;0.75;0.75;;;8.00;52.60;;;;;;4904945;29;20415;-86
2022/02/09 03:25:23;;;;;;;1.05;0.70;;;8.00;52.60;;;;;;4932217;29;20082;-88
2022/02/09 03:58:49;;;;;;;0.95;0.75;;;8.00;53.10;;;;;;4913839;29;20264;-84
2022/02/09 04:01:16;;;;;;;2.75;1.05;;;7.90;53.10;;;;;;4922647;29;20532;-83
2022/02/09 04:03:43;;;;;;;1.23;0.82;;;8.00;53.20;;;;;;4894347;29;20051;-84
2022/02/09 04:06:09;;;;;;;1.17;0.77;;;7.90;53.30;;;;;;4912044;29;20076;-82
2022/02/09 04:08:42;;;;;;;1.17;1.02;;;8.00;53.30;;;;;;4904685;29;20067;-83
2022/02/09 04:11:19;;;;;;;1.15;0.90;;;7.90;53.40;;;;;;4918977;29;20130;-85
2022/02/09 04:19:24;;;;;;;1.52;1.42;;;7.90;53.50;;;;;;4921099;29;20421;-85
2022/02/09 04:38:37;;;;;;;1.52;1.17;;;7.90;52.90;;;;;;4939053;29;20039;-85
2022/02/09 04:51:29;;;;;;;1.13;1.02;;;7.90;52.20;;;;;;4969901;28;20041;-83
2022/02/09 04:59:22;;;;;;;1.00;0.82;;;7.90;52.00;;;;;;4942385;28;20406;-83
2022/02/09 05:28:13;;;;;;;1.42;0.60;;;7.80;51.60;;;;;;4873518;29;20039;-90
2022/02/09 05:30:40;;;;;;;0.60;0.60;;;7.80;51.70;;;;;;4876496;29;20577;-90
2022/02/09 05:33:06;;;;;;;0.80;0.50;;;7.80;51.60;;;;;;4861456;29;20049;-90
2022/02/09 05:35:32;;;;;;;0.50;0.50;;;7.80;51.70;;;;;;4873798;29;20034;-92
2022/02/09 05:37:58;;;;;;;0.90;0.70;;;7.80;51.70;;;;;;4871512;29;20039;-91
2022/02/09 05:40:25;;;;;;;2.00;1.00;;;7.80;51.80;;;;;;4872508;29;20527;-87
2022/02/09 05:42:51;;;;;;;0.50;0.50;;;7.80;51.70;;;;;;4872070;29;20037;-84
2022/02/09 05:45:18;;;;;;;1.02;0.90;;;7.80;51.70;;;;;;4869150;29;20575;-84
2022/02/09 05:48:26;;;;;;;0.90;0.77;;;7.80;51.60;;;;;;4926516;29;20035;-86
2022/02/09 05:51:03;;;;;;;1.15;1.00;;;7.80;51.50;;;;;;4955809;29;20039;-84
2022/02/09 05:53:44;;;;;;;3.60;1.05;;;7.80;52.20;;;;;;4926769;29;20553;-85
2022/02/09 06:01:49;;;;;;;3.58;2.40;;;7.80;56.10;;;;;;4919242;29;20490;-85
2022/02/09 06:04:15;;;;;;;2.47;1.88;;;7.80;56.80;;;;;;4926508;29;20071;-84
2022/02/09 06:06:43;;;;;;;2.95;2.00;;;7.90;57.00;;;;;;4933368;29;20443;-85
2022/02/09 06:09:10;;;;;;;3.53;1.65;;;7.90;57.30;;;;;;4930881;29;20104;-85
2022/02/09 06:12:03;;;;;;;1.85;1.58;;;7.90;57.30;;;;;;4928187;29;20447;-84
2022/02/09 06:19:57;;;;;;;3.35;1.02;;;8.00;57.40;;;;;;4953325;28;20041;-86
2022/02/09 06:22:23;;;;;;;2.53;1.30;;;8.00;57.30;;;;;;4937948;29;20027;-87
2022/02/09 06:24:50;;;;;;;3.13;1.25;;;8.00;57.50;;;;;;4934178;29;20644;-85
2022/02/09 06:27:16;;;;;;;1.75;1.00;;;8.00;57.90;;;;;;4936832;28;20123;-87
2022/02/09 06:29:47;;;;;;;3.08;1.02;;;8.10;58.40;;;;;;4914882;29;20126;-86
2022/02/09 06:32:18;;;;;;;1.40;1.00;;;8.10;58.50;;;;;;4947859;28;20572;-86
2022/02/09 06:34:45;;;;;;;1.45;1.02;;;8.10;58.90;;;;;;4940581;29;20050;-86
2022/02/09 06:37:18;;;;;;;2.22;1.58;;;8.10;59.10;;;;;;4928888;29;20059;-86
2022/02/09 06:39:46;;;;;;;1.88;1.30;;;8.20;59.40;;;;;;4931730;28;20039;-86
2022/02/09 06:42:15;;;;;;;3.25;1.02;;;8.20;59.60;;;;;;4937465;29;20130;-87
2022/02/09 06:44:42;;;;;;;1.70;1.45;;;8.20;59.80;;;;;;4944337;28;20119;-87
2022/02/09 06:47:08;;;;;;;2.22;1.10;;;8.30;60.00;;;;;;4921766;29;20042;-86
2022/02/09 06:49:34;;;;;;;2.95;1.20;;;8.30;60.00;;;;;;4943334;28;20044;-85
2022/02/09 06:52:00;;;;;;;2.08;1.52;;;8.30;60.10;;;;;;4942100;29;20078;-85
2022/02/09 06:54:42;;;;;;;2.88;1.30;;;8.40;60.10;;;;;;4971800;28;20035;-86
2022/02/09 06:57:24;;;;;;;2.53;1.20;;;8.40;60.10;;;;;;4957108;29;20035;-84
2022/02/09 06:59:50;;;;;;;2.20;1.27;;;8.40;60.00;;;;;;4964457;28;20050;-84
2022/02/09 07:02:16;;;;;;;1.70;1.20;;;8.40;60.30;;;;;;4957802;28;20035;-80
2022/02/09 07:04:42;;;;;;;2.88;1.75;;;8.50;60.10;;;;;;4945880;28;20042;-84
2022/02/09 07:07:08;;;;;;;3.20;1.80;;;8.50;59.90;;;;;;4909356;29;20086;-90
2022/02/09 07:09:34;;;;;;;1.95;1.42;;;8.50;59.70;;;;;;4910766;29;20418;-88
2022/02/09 07:12:01;;;;;;;2.63;1.67;;;8.50;59.50;;;;;;4915857;29;20059;-91
2022/02/09 07:14:29;;;;;;;3.67;1.88;;;8.50;59.50;;;;;;4921422;29;20123;-90
2022/02/09 07:16:57;;;;;;;2.97;1.92;;;8.50;59.40;;;;;;4934664;29;20051;-87
2022/02/09 07:19:23;;;;;;;2.05;1.85;;;8.50;59.30;;;;;;4921127;28;20054;-86
2022/02/09 07:21:49;;;;;;;2.90;1.90;;;8.60;59.30;;;;;;4916018;29;20043;-87
2022/02/09 07:24:18;;;;;;;3.22;1.90;;;8.60;59.30;;;;;;4911906;29;20032;-86
2022/02/09 07:29:15;;;;;;;2.25;1.90;;;8.60;59.20;;;;;;4925878;28;20039;-85
2022/02/09 07:31:43;;;;;;;4.05;2.30;;;8.60;59.20;;;;;;4907300;28;20074;-87
2022/02/09 07:34:09;;;;;;;3.67;2.20;;;8.60;59.30;;;;;;4923397;29;20031;-87
2022/02/09 07:36:37;;;;;;;3.45;2.42;;;8.60;59.30;;;;;;4905333;29;20054;-86
2022/02/09 07:39:09;;;;;;;3.25;2.47;;;8.60;59.40;;;;;;4902403;29;20027;-87
2022/02/09 07:41:39;;;;;;;3.03;2.35;;;8.60;59.40;;;;;;4898249;29;20043;-88
2022/02/09 07:44:18;;;;;;;4.30;2.50;;;8.60;59.40;;;;;;4897928;29;20035;-86
2022/02/09 07:52:22;;;;;;;2.95;2.13;;;8.70;59.50;;;;;;4955441;28;20551;-87
2022/02/09 07:54:49;;;;;;;5.03;2.70;;;8.70;59.50;;;;;;4973076;28;20066;-88
2022/02/09 07:57:14;;;;;;;6.35;2.55;;;8.70;59.60;;;;;;4974354;28;20055;-86
2022/02/09 07:59:40;;;;;;;4.22;2.38;;;8.70;59.70;;;;;;4995644;28;20053;-85
2022/02/09 08:02:07;;;;;;;3.47;2.88;;;8.70;59.80;;;;;;4969063;28;20038;-86
2022/02/09 08:04:32;;;;;;;2.80;2.40;;;8.80;60.00;;;;;;4981824;28;20070;-85
2022/02/09 08:06:59;;;;;;;3.75;2.20;;;8.80;60.00;;;;;;4971525;28;20077;-81
2022/02/09 08:09:35;;;;;;;3.30;2.13;;;8.80;60.00;;;;;;4951119;28;20440;-82
2022/02/09 08:12:29;;;;;;;3.33;2.33;;;8.90;60.10;;;;;;4970475;28;20034;-82
2022/02/09 08:22:00;;;;;;;6.80;2.80;;;9.00;60.20;;;;;;4956229;28;20520;-84
2022/02/09 08:29:24;;;;;;;5.25;2.30;;;9.00;60.10;;;;;;4970662;28;20103;-82
2022/02/09 08:34:29;;;;;;;3.38;2.60;;;9.10;60.80;;;;;;4938175;28;20050;-83
2022/02/09 08:36:56;;;;;;;3.97;2.70;;;9.10;60.00;;;;;;4941236;28;20049;-83
2022/02/09 08:39:23;;;;;;;3.50;2.28;;;9.10;60.00;;;;;;4939641;28;20714;-83
2022/02/09 08:41:49;;;;;;;4.55;2.45;;;9.10;59.70;;;;;;4964247;28;20043;-82
2022/02/09 08:44:15;;;;;;;3.65;2.28;;;9.20;59.60;;;;;;4971801;28;20042;-83
2022/02/09 08:46:42;;;;;;;4.13;2.45;;;9.20;59.50;;;;;;4970148;28;20085;-83
2022/02/09 08:49:10;;;;;;;5.40;3.20;;;9.20;59.30;;;;;;4964965;28;20042;-83
2022/02/09 08:51:35;;;;;;;5.72;3.42;;;9.20;59.20;;;;;;4961425;28;20046;-82
2022/02/09 08:54:02;;;;;;;4.63;2.90;;;9.20;59.10;;;;;;4945494;28;20043;-83
2022/02/09 08:56:29;;;;;;;4.70;2.70;;;9.20;59.00;;;;;;4959895;28;20086;-81
2022/02/09 08:59:00;;;;;;;5.35;2.58;;;9.20;58.90;;;;;;4972722;28;20145;-82
2022/02/09 09:02:02;;;;;;;5.60;2.80;;;9.20;58.70;;;;;;4950601;28;20514;-84
2022/02/09 09:04:22;;;;;;;3.90;2.90;;;9.20;58.50;;;;;;4962530;28;20600;-81
2022/02/09 09:06:55;;;;;;;9.10;4.10;;;9.20;58.50;;;;;;4979644;28;20051;-83
2022/02/09 10:33:09;;;;;;;3.10;2.47;;;8.90;54.10;;;;;;4973748;28;20034;-82
2022/02/09 10:36:13;;;;;;;2.88;2.38;;;8.90;53.80;;;;;;4970660;28;20096;-83
2022/02/09 10:38:34;;;;;;;3.85;2.30;;;8.90;53.60;;;;;;4958811;28;20042;-84
2022/02/09 10:41:16;;;;;;;3.63;2.35;;;9.00;53.70;;;;;;4972228;28;20049;-82
2022/02/09 10:43:45;;;;;;;3.38;2.13;;;8.90;53.60;;;;;;4939080;28;20050;-87
2022/02/09 10:46:16;;;;;;;4.28;2.60;;;9.00;55.10;;;;;;4960219;28;20089;-84
2022/02/09 10:48:56;;;;;;;4.57;2.10;;;9.00;54.60;;;;;;4971641;28;20042;-84
2022/02/09 10:54:12;;;;;;;3.72;2.50;;;9.00;53.70;;;;;;4974182;28;20125;-85
2022/02/09 10:56:42;;;;;;;4.13;2.38;;;9.00;53.80;;;;;;4969554;28;20485;-85
2022/02/09 10:59:10;;;;;;;5.75;2.75;;;9.00;53.60;;;;;;4970728;28;20173;-85
2022/02/09 11:01:37;;;;;;;3.85;2.70;;;9.00;53.70;;;;;;4949170;28;20034;-85
2022/02/09 11:04:05;;;;;;;4.28;2.40;;;9.00;53.70;;;;;;4922433;28;20255;-84
2022/02/09 11:06:40;;;;;;;5.43;3.63;;;9.00;53.70;;;;;;4959269;28;20143;-85
2022/02/09 11:09:09;;;;;;;3.45;2.95;;;9.00;53.60;;;;;;4981617;28;20039;-83
2022/02/09 11:11:39;;;;;;;4.85;3.15;;;9.00;53.50;;;;;;4967532;28;20039;-84
2022/02/09 11:14:15;;;;;;;4.05;3.00;;;9.00;53.60;;;;;;4964584;28;20033;-85
2022/02/09 11:16:43;;;;;;;4.32;2.80;;;9.00;53.60;;;;;;4952436;28;20035;-85
2022/02/09 11:19:11;;;;;;;5.63;3.45;;;9.00;53.50;;;;;;4961091;28;20035;-85
2022/02/09 11:21:38;;;;;;;6.78;3.08;;;9.00;53.30;;;;;;4956055;28;20027;-86
2022/02/09 11:24:23;;;;;;;7.82;2.95;;;9.00;53.40;;;;;;4970958;28;20552;-86
2022/02/09 11:27:03;;;;;;;5.67;3.13;;;9.00;53.50;;;;;;4948536;28;20047;-86
2022/02/09 11:29:56;;;;;;;4.93;3.22;;;9.00;53.40;;;;;;4955476;28;20035;-86
2022/02/09 11:32:44;;;;;;;6.65;3.58;;;9.00;53.40;;;;;;4960942;28;20046;-86
2022/02/09 11:43:33;;;;;;;4.78;3.60;;;9.00;53.40;;;;;;4963146;28;20035;-86
2022/02/09 12:00:12;;;;;;;6.90;3.92;;;8.90;53.90;;;;;;4858639;29;20049;-85
2022/02/09 12:11:20;;;;;;;8.63;3.53;;;8.90;54.10;;;;;;4879307;29;20089;-83
2022/02/09 12:16:46;;;;;;;5.80;3.63;;;8.90;54.30;;;;;;4888709;29;20041;-84
2022/02/09 12:19:25;;;;;;;6.43;4.03;;;8.90;54.40;;;;;;4845634;29;20041;-83
2022/02/09 12:24:34;;;;;;;5.50;3.45;;;8.90;54.40;;;;;;4880450;28;20520;-84
2022/02/09 12:27:04;;;;;;;6.82;3.80;;;8.90;54.60;;;;;;4942476;28;20034;-85
2022/02/09 12:29:33;;;;;;;5.68;3.92;;;8.90;54.70;;;;;;4952757;28;20046;-84
2022/02/09 12:31:59;;;;;;;4.28;3.28;;;8.90;54.80;;;;;;4968651;28;20038;-83
2022/02/09 12:34:29;;;;;;;4.93;3.25;;;8.90;55.10;;;;;;4935729;28;20452;-84
2022/02/09 12:36:55;;;;;;;7.13;3.75;;;8.90;55.00;;;;;;4966825;28;20051;-84
2022/02/09 12:39:23;;;;;;;4.90;3.67;;;8.90;55.10;;;;;;4946449;28;20046;-85
2022/02/09 12:41:51;;;;;;;6.18;3.20;;;8.90;55.20;;;;;;4943777;28;20438;-85
2022/02/09 12:44:24;;;;;;;6.53;3.47;;;8.90;54.90;;;;;;4933025;28;20122;-84
2022/02/09 12:46:50;;;;;;;4.80;3.47;;;8.90;54.80;;;;;;4941126;28;20038;-84
2022/02/09 12:49:18;;;;;;;5.20;3.58;;;8.90;54.70;;;;;;4958852;28;20030;-84
2022/02/09 12:51:48;;;;;;;4.40;2.72;;;8.90;54.90;;;;;;4967001;28;20038;-85
2022/02/09 12:54:16;;;;;;;3.15;2.20;;;9.00;54.90;;;;;;4975061;28;20038;-85
2022/02/09 12:56:46;;;;;;;5.18;2.60;;;8.90;54.90;;;;;;4951489;28;20097;-85
2022/02/09 12:59:16;;;;;;;4.55;2.80;;;8.90;54.80;;;;;;4951125;28;21485;-84
2022/02/09 13:01:51;;;;;;;5.95;3.70;;;8.90;54.90;;;;;;4959558;28;20441;-85
2022/02/09 13:04:34;;;;;;;3.28;2.88;;;8.90;54.80;;;;;;4975355;28;20465;-84
2022/02/09 13:07:03;;;;;;;5.47;2.55;;;8.90;54.80;;;;;;4959693;28;20031;-84
2022/02/09 13:09:30;;;;;;;4.20;2.50;;;8.90;54.60;;;;;;4956582;28;20050;-83
2022/02/09 13:11:56;;;;;;;3.70;2.30;;;8.90;54.60;;;;;;4941171;28;20039;-81
2022/02/09 13:14:36;;;;;;;4.28;3.10;;;8.90;54.60;;;;;;4979717;28;20021;-83
2022/02/09 14:31:58;;;;;;;6.47;4.03;;;9.50;60.00;;;;;;4895825;29;20053;-83
2022/02/09 14:33:49;;;;;;;8.45;3.58;;;9.60;60.20;;;;;;4881646;29;20455;-82
2022/02/09 14:57:14;;;;;;;8.10;3.80;;;9.70;62.10;;;;;;4969403;28;20077;-82
2022/02/09 14:59:31;;;;;;;6.57;3.70;;;9.80;62.20;;;;;;4949612;28;20118;-82
2022/02/09 15:02:00;;;;;;;7.25;3.38;;;9.80;62.20;;;;;;4971477;28;20122;-82
2022/02/09 15:09:37;;;;;;;7.47;3.63;;;9.80;62.40;;;;;;4969637;28;20117;-82
2022/02/09 15:12:25;;;;;;;6.22;3.33;;;9.80;62.30;;;;;;4955021;28;20514;-85
2022/02/09 15:22:52;;;;;;;4.45;2.67;;;9.90;62.20;;;;;;4969531;28;20137;-83
2022/02/09 15:25:34;;;;;;;5.22;3.47;;;9.80;61.90;;;;;;4973220;28;20043;-83
2022/02/09 15:28:02;;;;;;;6.72;3.47;;;9.90;61.90;;;;;;4971589;28;20105;-82
2022/02/09 15:30:33;;;;;;;4.10;2.92;;;9.90;61.80;;;;;;4938030;28;20031;-83
2022/02/09 15:33:01;;;;;;;5.85;3.25;;;9.90;61.70;;;;;;4954076;28;20035;-81
2022/02/09 15:35:33;;;;;;;6.78;3.25;;;9.90;61.70;;;;;;4955125;28;20085;-81
2022/02/09 15:38:20;;;;;;;6.25;3.58;;;9.90;61.70;;;;;;4950561;28;20113;-81
2022/02/09 16:33:11;;;;;;;4.75;3.22;;;10.00;62.30;;;;;;4956245;28;20046;-84
2022/02/09 16:34:49;;;;;;;4.15;2.85;;;10.00;62.50;;;;;;4979613;28;20508;-85
2022/02/09 16:44:18;;;;;;;5.70;3.10;;;10.00;63.00;;;;;;4936951;28;20078;-82
2022/02/09 16:45:33;;;;;;;4.80;3.25;;;10.00;63.40;;;;;;4957090;28;20077;-82
2022/02/09 16:48:02;;;;;;;7.28;3.45;;;10.10;63.60;;;;;;4975211;28;20035;-83
2022/02/09 16:50:47;;;;;;;5.93;3.70;;;10.00;63.60;;;;;;4959223;28;20030;-83
2022/02/09 16:53:34;;;;;;;9.07;3.40;;;10.00;63.60;;;;;;4960210;28;20054;-82
2022/02/09 17:20:41;;;;;;;4.63;3.60;;;10.10;63.60;;;;;;4957944;28;20042;-82
2022/02/09 17:23:07;;;;;;;6.80;3.83;;;10.10;63.60;;;;;;4957573;28;20485;-83
2022/02/09 17:25:33;;;;;;;4.15;3.38;;;10.10;63.60;;;;;;4968238;28;20042;-81
2022/02/09 17:27:58;;;;;;;5.30;3.35;;;10.10;63.60;;;;;;4952944;28;20081;-80
2022/02/09 17:33:16;;;;;;;10.02;3.28;;;10.10;63.60;;;;;;4961086;28;20075;-80
2022/02/09 17:35:47;;;;;;;;;;;10.10;63.80;;;;;;4976327;28;20030;-83
2022/02/09 17:57:51;;;;;;;6.07;3.40;;;10.10;64.20;;;;;;4932938;28;20048;-85
2022/02/09 18:00:18;;;;;;;5.38;3.28;;;10.20;64.20;;;;;;4888124;29;20048;-85
2022/02/09 18:02:46;;;;;;;6.75;3.67;;;10.20;64.30;;;;;;4916306;29;20031;-86
2022/02/09 18:05:24;;;;;;;6.13;3.60;;;10.10;64.10;;;;;;4893436;29;20036;-84
2022/02/09 18:08:01;;;;;;;4.43;3.47;;;10.20;64.20;;;;;;4908395;29;20060;-85
2022/02/09 18:29:30;;;;;;;6.55;4.43;;;10.10;62.30;;;;;;4956239;28;20031;-84
2022/02/09 18:33:06;;;;;;;7.05;4.72;;;10.10;61.80;;;;;;4975727;28;20041;-84
2022/02/09 18:43:05;;;;;;;5.00;4.28;;;10.10;60.60;;;;;;4954867;28;20047;-83
2022/02/09 18:59:28;;;;;;;5.72;4.43;;;10.00;59.60;;;;;;4860899;29;20590;-86
2022/02/09 19:02:04;;;;;;;4.53;3.80;;;10.00;60.00;;;;;;4900432;29;20071;-85
2022/02/09 19:17:58;;;;;;;5.20;3.22;;;9.90;59.90;;;;;;4898459;29;20049;-81
2022/02/09 19:20:41;;;;;;;4.15;3.40;;;9.90;61.30;;;;;;4892957;29;20103;-80
2022/02/09 19:31:37;;;;;;;4.55;3.30;;;10.00;60.30;;;;;;4968449;28;20071;-86
2022/02/09 19:57:26;;;;;;;4.93;3.60;;;9.80;59.00;;;;;;4940966;28;20410;-80
2022/02/09 19:59:54;;;;;;;3.63;3.20;;;9.90;59.00;;;;;;4924753;28;20459;-82
2022/02/09 20:02:20;;;;;;;4.05;3.47;;;9.80;58.80;;;;;;4944239;28;20178;-80
2022/02/09 20:04:47;;;;;;;3.28;2.97;;;9.80;58.80;;;;;;4944119;28;20047;-80
2022/02/09 20:07:13;;;;;;;3.75;3.35;;;9.90;58.80;;;;;;4931472;28;20469;-81
2022/02/09 20:09:39;;;;;;;3.78;3.05;;;9.80;58.70;;;;;;4945653;28;20031;-81
2022/02/09 20:12:05;;;;;;;5.15;3.63;;;9.80;58.70;;;;;;4901284;28;20035;-80
2022/02/09 20:14:31;;;;;;;3.88;3.47;;;9.80;58.60;;;;;;4928326;28;20414;-80
2022/02/09 20:16:57;;;;;;;4.22;3.67;;;9.80;58.70;;;;;;4945552;28;20055;-83
2022/02/09 20:19:23;;;;;;;4.18;3.60;;;9.80;58.60;;;;;;4911582;28;20031;-92
2022/02/09 20:21:49;;;;;;;3.65;3.10;;;9.80;58.60;;;;;;4946449;28;20035;-80
2022/02/09 20:24:16;;;;;;;3.75;3.45;;;9.80;58.50;;;;;;4944880;28;20042;-80
2022/02/09 20:26:44;;;;;;;4.65;3.58;;;9.80;58.50;;;;;;4945735;28;20039;-79
2022/02/09 20:29:18;;;;;;;4.35;3.20;;;9.80;58.50;;;;;;4945553;28;20035;-78
2022/02/09 20:31:51;;;;;;;5.03;3.40;;;9.80;58.40;;;;;;4947387;28;20036;-80
2022/02/09 20:34:29;;;;;;;4.60;3.63;;;9.80;58.40;;;;;;4947158;28;20761;-82
2022/02/09 20:36:55;;;;;;;4.40;3.63;;;9.80;58.40;;;;;;4946791;28;20154;-83
2022/02/09 20:39:27;;;;;;;4.30;3.35;;;9.80;58.30;;;;;;4930036;28;20155;-81
2022/02/09 20:41:54;;;;;;;3.40;3.10;;;9.80;58.40;;;;;;4929739;28;20541;-80
2022/02/09 20:44:31;;;;;;;3.42;3.13;;;9.70;58.20;;;;;;4943886;28;20032;-81
2022/02/09 20:46:58;;;;;;;3.70;3.15;;;9.70;58.20;;;;;;4948746;28;20497;-81
2022/02/09 20:49:25;;;;;;;4.78;3.58;;;9.70;58.20;;;;;;4949666;28;20086;-81
2022/02/09 20:51:52;;;;;;;3.72;3.30;;;9.70;58.10;;;;;;4934091;28;20027;-81
2022/02/09 20:54:18;;;;;;;4.75;3.08;;;9.70;58.20;;;;;;4933399;28;20135;-81
2022/02/09 20:56:44;;;;;;;3.50;3.20;;;9.70;58.10;;;;;;4949664;28;20526;-81
2022/02/09 20:59:14;;;;;;;7.65;3.40;;;9.70;58.10;;;;;;4936631;28;20438;-80
2022/02/09 21:01:50;;;;;;;4.63;3.17;;;9.70;58.20;;;;;;4947729;28;20043;-80
2022/02/09 21:04:19;;;;;;;3.90;2.90;;;9.70;58.20;;;;;;4947492;28;20039;-81
2022/02/09 21:10:11;;;;;;;3.33;3.03;;;9.70;58.20;;;;;;4913153;28;20054;-80
2022/02/09 21:12:11;;;;;;;;;;;9.70;58.30;;;;;;4922130;28;20039;-81
2022/02/09 21:14:56;;;;;;;3.83;2.88;;;9.70;58.20;;;;;;4912286;28;19922;-81
2022/02/09 21:18:25;;;;;;;2.90;2.60;;;9.70;58.20;;;;;;4898535;28;20047;-81
2022/02/09 21:23:18;;;;;;;3.83;3.13;;;9.60;58.10;;;;;;4924947;29;20652;-81
2022/02/09 21:52:33;;;;;;;3.40;3.10;;;9.60;58.00;;;;;;4927557;29;20072;-82
2022/02/09 21:57:37;;;;;;;3.30;2.97;;;9.60;58.00;;;;;;4895610;29;20055;-81
2022/02/09 22:06:23;;;;;;;3.55;2.70;;;9.60;57.90;;;;;;4918648;28;20039;-80
2022/02/09 22:27:44;;;;;;;2.72;2.53;;;9.50;58.40;;;;;;4972037;28;20056;-80
2022/02/09 22:56:48;;;;;;;2.60;2.33;;;9.50;57.70;;;;;;4951476;28;20125;-80
2022/02/09 22:59:23;;;;;;;1.95;1.83;;;9.50;57.60;;;;;;4968256;28;20132;-79
2022/02/09 23:01:57;;;;;;;3.15;2.03;;;9.50;57.60;;;;;;4941328;28;20031;-80
2022/02/09 23:07:11;;;;;;;2.78;2.15;;;9.50;57.60;;;;;;4957079;28;20035;-80
2022/02/09 23:12:59;;;;;;;2.50;2.15;;;9.50;57.50;;;;;;4965026;28;20039;-80
2022/02/09 23:15:10;;;;;;;2.20;1.80;;;9.40;57.30;;;;;;4932328;28;20046;-79
2022/02/09 23:23:17;;;;;;;3.35;1.92;;;9.50;57.30;;;;;;4906498;29;19922;-80
2022/02/09 23:26:15;;;;;;;3.08;2.30;;;9.40;57.20;;;;;;4906489;29;20036;-79
